CYGLCYNM

Guest
Details From CYGL - LA GRANDE RIVIERE
To CYNM - MATAGAMI
Flight Number -
Tags generated
Created
Modified
Stats Distance 238 nm / 441 km
Max Altitude 18,000 ft / 5,486 m
Waypoints 4
Social Downloads 0
Likes 0
Share VATSIM

Download

Looking for another format? Having issues loading an existing format? Contact us
Advertisement - Login to hide

Notes

Basic altitude profile: - Ascent Rate: 2500ft/min - Ascent Speed: 250kts - Cruise Altitude: 35000ft - Cruise Speed: 420kts - Descent Rate: 1500ft/min - Descent Speed: 250kts Options: - Use NATs: yes - Use PACOTS: yes - Use low airways: yes - Use high airways: yes

Route

CYGL YGL J567 NM CYNM

ID Type Via Altitude Latitude Longitude Leg Dist Tot Dist Heading (true) Name
O CYGL APT - 0 ft / 0 m 53.62537˚ -77.70412˚ - 0 nm - LA GRANDE RIVIERE
YGL VOR - 100 ft / 30 m 53.62550˚ -77.71622˚ 0 nm 0 nm 271° / 271° LA GRANDE RIVIERE VOR-DME
NM NDB J567 (AWY-HI) 18,000 ft / 5,486 m 49.72394˚ -77.74156˚ 234 nm 234 nm 180° / 180° MATAGAMI NDB
O CYNM APT - 0 ft / 0 m 49.76169˚ -77.80250˚ 3 nm 238 nm 314° / 314° MATAGAMI

Altitude Profile

Advertisement - Login to hide

Weather


0- 5 10 15 20 25 30 35+ Temperature / ° C

Clouds and Precipitation
Forecast for 2017-12-14 00:00 UTC. Updated 2 hours ago

Ground ~20,000 ft ~40,000 ft Winds

CYGL

Details ICAO CYGL (YGL)
Name LA GRANDE RIVIERE
Region Canada
Timezone America/Montreal (UTC-5.0)
Stats Elevation 639 ft / 195 m (AMSL)
Location 53.625369° -77.704115°
Runways 1
Magnetic Variation 15.325° W

METAR

CYGL 140100Z 33010G17KT 15SM OVC095 M19/M23 A2953 RMK AC8 SLP028

Decode

TAF

TAF CYGL 132339Z 1400/1424 32008G18KT P6SM OVC120 TEMPO 1400/1402 5SM -SN BKN020 OVC120 FM140200 36015KT 5SM -SN BKN020 OVC060 TEMPO 1402/1406 P6SM -SN OVC060 PROB30 1402/1406 11/2SM -SN FM140600 35010KT WS005/36030KT 2SM -SN OVC012 FM141400 33015KT 21/2SM -SN OVC012 BECMG 1417/1419 30020G32KT FM141900 30020G32KT 2SM -SN BLSN OVC012 RMK NXT FCST BY 140600Z

Decode

Departure Runways

ID Width Length Bearing (true) Bearing (mag) Surface Threshold Offset Overrun Length
13 150 ft / 46 m 6,469 ft / 1,972 m 113.03° 128.35° Asphalt 0 ft / 0 m 0 ft / 0 m
31 150 ft / 46 m 6,469 ft / 1,972 m 293.05° 308.37° Asphalt 0 ft / 0 m 0 ft / 0 m

CYNM

Details ICAO CYNM (YNM)
Name MATAGAMI
Region Canada
Timezone America/Montreal (UTC-5.0)
Stats Elevation 918 ft / 280 m (AMSL)
Location 49.761691° -77.802504°
Runways 1
Magnetic Variation 13.489° W

METAR

CYNM 140100Z AUTO 31017G28KT 4SM -SN BKN021 OVC026 M18/M20 A2948 RMK ICG SLP017

Decode

TAF

Not found

Destination Runways

ID Width Length Bearing (true) Bearing (mag) Surface Threshold Offset Overrun Length
15 100 ft / 30 m 4,993 ft / 1,522 m 134.24° 147.73° Asphalt 0 ft / 0 m 0 ft / 0 m
33 100 ft / 30 m 4,993 ft / 1,522 m 314.25° 327.74° Asphalt 0 ft / 0 m 0 ft / 0 m

Popular Alternatives